Página principal
METAR-TAF:

METAR-TAF

Aeroportos :

Weno, Micronésia

latitude: 07-28N, longitude: 151-51E, altura: 3 m

Observação actual do tempo

O boletim foi feito há 46 minutos, às 01:53 UTC
Vento 8 kt de nordeste
Temperatura 31°C
Humidade 75%
Pressão 1010 hPa
Visibilidade: 24.1 km
Poucas nuvensa uma altura de 1400 ft
Nuvens dispersasa uma altura de 28000 ft

METAR: PTKK 190153Z 04008KT 15SM FEW014 SCT280 31/26 A2982 RMK SLP100 T03090255

Hora: 12:39 (02:39 UTC)

Previsão

O boletim foi feito há 3 horas e 7 minutos, às 23:32 UTC
Previsão válida de 19 às 00 UTC a 19 às 24 UTC
Vento 11 kt de es-nordeste
Visibilidade: 10 km
Poucas nuvensa uma altura de 1400 ft
Nuvens dispersasa uma altura de 4000 ft
aguaceiros nas vizinhanças

TAF: PTKK 182332Z 1900/1924 06011KT P6SM VCSH FEW014 SCT040

Observações e previsões do tempo de mais de 4000 aeroportos (mensagens METAR e TAF).

As estações disponíveis são os pontos amarelos e vermelhos sobre o mapa.

Mova o rato sobre o mapa para ver o nome da estação.

Depois clique no ponto para visualizar as observações e previsões meteorológicas.

Para alterar o mapa : clique nos botões verdes com uma cruz preta para aumentar o zoom; no botão verde com uma pitada de zoom; ou nas setas verdes para mapas adjacentes.


METAR-TAF: